createdAt,value
2018-09-23T00:01:38.044Z,59.50
2018-09-23T00:04:07.323Z,59.70
2018-09-23T00:06:36.545Z,59.30
2018-09-23T00:09:07.585Z,59.70
2018-09-23T00:11:36.780Z,59.50
2018-09-23T00:14:05.951Z,59.30
2018-09-23T00:16:35.182Z,59.50
2018-09-23T00:19:04.424Z,59.40
2018-09-23T00:21:33.619Z,59.50
2018-09-23T00:24:02.840Z,59.30
2018-09-23T00:26:32.101Z,59.50
2018-09-23T00:29:01.289Z,59.40
2018-09-23T00:31:30.467Z,59.60
2018-09-23T00:33:59.633Z,59.40
2018-09-23T00:36:28.933Z,59.60
2018-09-23T00:38:58.110Z,59.30
2018-09-23T00:41:27.356Z,59.50
2018-09-23T00:43:56.537Z,59.50
2018-09-23T00:46:25.856Z,59.40
2018-09-23T00:48:55.053Z,59.50
2018-09-23T00:51:24.360Z,59.60
2018-09-23T00:53:53.557Z,59.60
2018-09-23T00:56:22.752Z,59.60
2018-09-23T00:58:51.947Z,59.70
2018-09-23T01:01:21.160Z,59.50
2018-09-23T01:03:50.344Z,59.50
2018-09-23T01:06:19.554Z,59.50
2018-09-23T01:08:48.744Z,59.50
2018-09-23T01:11:17.920Z,59.90
2018-09-23T01:13:47.212Z,59.60
2018-09-23T01:16:16.440Z,59.60
2018-09-23T01:18:45.612Z,59.50
2018-09-23T01:21:14.780Z,59.70
2018-09-23T01:23:43.975Z,59.80
2018-09-23T01:26:13.608Z,59.60
2018-09-23T01:28:42.815Z,59.70
2018-09-23T01:31:12.032Z,59.70
2018-09-23T01:33:41.692Z,59.90
2018-09-23T01:36:10.941Z,59.70
2018-09-23T01:38:40.137Z,59.70
2018-09-23T01:41:09.388Z,59.80
2018-09-23T01:43:38.583Z,59.70
2018-09-23T01:46:07.885Z,59.80
2018-09-23T01:48:37.061Z,59.60
2018-09-23T01:51:06.540Z,59.80
2018-09-23T01:53:35.721Z,59.60
2018-09-23T01:56:04.983Z,59.70
2018-09-23T01:58:34.133Z,59.60
2018-09-23T02:01:03.330Z,59.70
2018-09-23T02:03:32.509Z,59.50
2018-09-23T02:06:02.091Z,59.20
2018-09-23T02:08:31.285Z,59.50
2018-09-23T02:11:00.450Z,59.40
2018-09-23T02:13:29.632Z,59.60
2018-09-23T02:15:58.800Z,59.50
2018-09-23T02:18:28.023Z,59.50
2018-09-23T02:20:57.196Z,59.50
2018-09-23T02:23:26.393Z,59.40
2018-09-23T02:25:55.563Z,59.20
2018-09-23T02:28:24.896Z,59.30
2018-09-23T02:30:54.090Z,59.60
2018-09-23T02:33:23.265Z,59.20
2018-09-23T02:35:52.466Z,59.60
2018-09-23T02:38:21.719Z,59.80
2018-09-23T02:40:50.923Z,59.50
2018-09-23T02:43:20.107Z,59.60
2018-09-23T02:45:49.489Z,60.10
2018-09-23T02:48:18.808Z,59.70
2018-09-23T02:50:47.991Z,59.20
2018-09-23T02:53:17.155Z,59.80
2018-09-23T02:55:46.347Z,59.70
2018-09-23T02:58:15.636Z,59.50
2018-09-23T03:00:44.848Z,59.90
2018-09-23T03:03:14.030Z,59.70
2018-09-23T03:05:43.680Z,59.30
2018-09-23T03:08:13.088Z,59.50
2018-09-23T03:10:42.328Z,59.70
2018-09-23T03:13:11.507Z,59.50
2018-09-23T03:15:40.706Z,59.60
2018-09-23T03:18:09.907Z,59.50
2018-09-23T03:20:39.149Z,59.60
2018-09-23T03:23:08.374Z,59.40
2018-09-23T03:25:37.548Z,59.70
2018-09-23T03:28:06.848Z,59.30
2018-09-23T03:30:37.297Z,59.40
2018-09-23T03:33:06.737Z,59.60
2018-09-23T03:35:36.149Z,59.50
2018-09-23T03:38:05.709Z,59.30
2018-09-23T03:40:35.361Z,59.80
2018-09-23T03:43:05.238Z,59.80
2018-09-23T03:45:34.552Z,59.80
2018-09-23T03:48:03.897Z,59.90
2018-09-23T03:50:33.286Z,60.30
2018-09-23T03:53:02.649Z,59.50
2018-09-23T03:55:31.863Z,59.80
2018-09-23T03:58:01.193Z,59.90
2018-09-23T04:00:30.439Z,60.00
2018-09-23T04:02:59.690Z,60.20
2018-09-23T04:05:28.971Z,60.00
2018-09-23T04:07:58.254Z,60.00
2018-09-23T04:10:27.554Z,60.30
2018-09-23T04:12:57.191Z,60.40
2018-09-23T04:15:26.571Z,60.30
2018-09-23T04:17:55.996Z,59.80
2018-09-23T04:20:25.293Z,60.10
2018-09-23T04:22:54.740Z,60.00
2018-09-23T04:25:24.072Z,60.10
2018-09-23T04:27:53.475Z,59.80
2018-09-23T04:30:23.004Z,60.30
2018-09-23T04:32:52.298Z,60.20
2018-09-23T04:35:21.607Z,60.10
2018-09-23T04:37:50.933Z,60.40
2018-09-23T04:40:20.275Z,60.60
2018-09-23T04:42:49.581Z,60.20
2018-09-23T04:45:18.982Z,60.60
2018-09-23T04:47:48.287Z,60.30
2018-09-23T04:50:17.612Z,60.40
2018-09-23T04:52:46.820Z,61.20
2018-09-23T04:55:16.190Z,60.40
2018-09-23T04:57:45.499Z,60.10
2018-09-23T05:00:14.789Z,60.60
2018-09-23T05:02:44.062Z,60.10
2018-09-23T05:05:13.373Z,60.70
2018-09-23T05:07:42.730Z,60.40
2018-09-23T05:10:12.117Z,60.80
2018-09-23T05:12:41.426Z,59.90
2018-09-23T05:15:10.700Z,60.50
2018-09-23T05:17:40.377Z,60.60
2018-09-23T05:20:09.637Z,60.60
2018-09-23T05:22:38.895Z,60.80
2018-09-23T05:25:08.188Z,61.10
2018-09-23T05:27:37.631Z,60.80
2018-09-23T05:30:06.963Z,61.10
2018-09-23T05:32:36.298Z,61.40
2018-09-23T05:35:05.687Z,60.60
2018-09-23T05:37:35.036Z,61.10
2018-09-23T05:40:04.285Z,61.60
2018-09-23T05:42:33.705Z,61.70
2018-09-23T05:45:02.948Z,61.50
2018-09-23T05:47:32.361Z,62.40
2018-09-23T05:50:01.665Z,62.20
2018-09-23T05:52:30.976Z,62.40
2018-09-23T05:55:00.356Z,62.70
2018-09-23T05:57:29.732Z,62.70
2018-09-23T05:59:59.912Z,62.40
2018-09-23T06:02:29.633Z,62.50
2018-09-23T06:04:59.027Z,62.80
2018-09-23T06:07:28.357Z,63.30
2018-09-23T06:09:57.666Z,63.00
2018-09-23T06:12:26.888Z,63.00
2018-09-23T06:14:56.229Z,63.00
2018-09-23T06:17:25.562Z,63.40
2018-09-23T06:19:55.093Z,63.20
2018-09-23T06:22:24.390Z,63.30
2018-09-23T06:24:53.685Z,63.60
2018-09-23T06:27:22.961Z,63.70
2018-09-23T06:29:52.246Z,63.40
2018-09-23T06:32:21.660Z,63.10
2018-09-23T06:34:50.985Z,60.00
2018-09-23T06:37:20.312Z,60.60
2018-09-23T06:39:49.667Z,59.40
2018-09-23T06:42:18.912Z,59.00
2018-09-23T06:44:48.244Z,58.90
2018-09-23T06:47:17.773Z,58.80
2018-09-23T06:49:47.117Z,58.70
2018-09-23T06:52:16.404Z,58.60
2018-09-23T06:54:45.948Z,58.30
2018-09-23T06:57:15.476Z,58.80
2018-09-23T06:59:44.874Z,58.20
2018-09-23T07:02:14.231Z,58.20
2018-09-23T07:04:43.600Z,58.90
2018-09-23T07:07:13.153Z,59.30
2018-09-23T07:09:42.404Z,59.70
2018-09-23T07:12:11.678Z,59.90
2018-09-23T07:14:41.019Z,60.00
2018-09-23T07:17:10.736Z,59.90
2018-09-23T07:19:40.154Z,59.70
2018-09-23T07:22:09.443Z,60.00
2018-09-23T07:24:38.708Z,60.10
2018-09-23T07:27:09.239Z,59.50
2018-09-23T07:29:38.640Z,59.40
2018-09-23T07:32:07.911Z,59.20
2018-09-23T07:34:37.477Z,59.60
2018-09-23T07:37:07.058Z,59.10
2018-09-23T07:39:36.468Z,59.00
2018-09-23T07:42:05.729Z,58.60
2018-09-23T07:44:35.053Z,58.10
2018-09-23T07:47:04.359Z,57.60
2018-09-23T07:49:33.733Z,55.70
2018-09-23T07:52:03.176Z,54.20
2018-09-23T07:54:32.479Z,53.10
2018-09-23T07:57:01.844Z,52.60
2018-09-23T07:59:31.192Z,52.20
2018-09-23T08:02:00.450Z,52.10
2018-09-23T08:04:29.709Z,51.90
2018-09-23T08:06:59.176Z,52.20
2018-09-23T08:09:28.539Z,52.00
2018-09-23T08:11:58.346Z,51.90
2018-09-23T08:14:27.852Z,52.40
2018-09-23T08:16:57.078Z,52.80
2018-09-23T08:19:26.502Z,53.60
2018-09-23T08:21:55.820Z,54.80
2018-09-23T08:24:25.168Z,56.00
2018-09-23T08:26:54.595Z,56.90
2018-09-23T08:29:23.949Z,58.00
2018-09-23T08:31:53.377Z,57.70
2018-09-23T08:34:22.700Z,58.00
2018-09-23T08:36:52.077Z,58.50
2018-09-23T08:39:21.724Z,58.70
2018-09-23T08:41:50.987Z,59.10
2018-09-23T08:44:20.430Z,59.40
2018-09-23T08:46:50.746Z,59.70
2018-09-23T08:49:20.277Z,59.80
2018-09-23T08:51:49.615Z,60.00
2018-09-23T08:54:18.968Z,59.60
2018-09-23T08:56:48.476Z,60.10
2018-09-23T08:59:17.901Z,60.00
2018-09-23T09:01:47.273Z,58.70
2018-09-23T09:04:17.009Z,59.30
2018-09-23T09:06:46.401Z,59.90
2018-09-23T09:09:15.712Z,60.60
2018-09-23T09:11:45.027Z,60.70
2018-09-23T09:14:14.342Z,61.20
2018-09-23T09:16:43.681Z,61.40
2018-09-23T09:19:13.096Z,61.30
2018-09-23T09:21:42.366Z,61.80
2018-09-23T09:24:11.799Z,61.40
2018-09-23T09:26:41.176Z,61.60
2018-09-23T09:29:10.616Z,61.60
2018-09-23T09:31:40.128Z,61.80
2018-09-23T09:34:09.440Z,61.70
2018-09-23T09:36:38.813Z,61.50
2018-09-23T09:39:10.214Z,61.50
2018-09-23T09:41:40.104Z,61.60
2018-09-23T09:44:09.648Z,61.70
2018-09-23T09:46:38.989Z,61.70
2018-09-23T09:49:08.268Z,61.50
2018-09-23T09:51:37.574Z,61.60
2018-09-23T09:54:07.284Z,61.10
2018-09-23T09:56:36.814Z,61.80
2018-09-23T09:59:06.182Z,61.60
2018-09-23T10:01:35.537Z,61.60
2018-09-23T10:04:04.922Z,61.40
2018-09-23T10:06:34.329Z,61.20
2018-09-23T10:09:04.593Z,61.60
2018-09-23T10:11:34.112Z,61.60
2018-09-23T10:14:03.433Z,61.60
2018-09-23T10:16:33.875Z,61.60
2018-09-23T10:19:03.289Z,61.40
2018-09-23T10:21:32.689Z,61.60
2018-09-23T10:24:02.054Z,61.30
2018-09-23T10:26:31.709Z,61.20
2018-09-23T10:29:00.996Z,61.40
2018-09-23T10:31:30.428Z,61.60
2018-09-23T10:33:59.735Z,61.30
2018-09-23T10:36:29.129Z,61.50
2018-09-23T10:38:58.469Z,61.40
2018-09-23T10:41:27.847Z,61.30
2018-09-23T10:43:57.177Z,61.40
2018-09-23T10:46:26.501Z,61.30
2018-09-23T10:48:55.861Z,61.30
2018-09-23T10:51:25.384Z,61.50
2018-09-23T10:53:54.705Z,61.40
2018-09-23T10:56:23.980Z,61.30
2018-09-23T10:58:53.357Z,61.40
2018-09-23T11:01:22.721Z,61.80
2018-09-23T11:03:52.049Z,61.20
2018-09-23T11:06:21.457Z,61.40
2018-09-23T11:08:50.733Z,61.90
2018-09-23T11:11:20.187Z,61.10
2018-09-23T11:13:49.650Z,61.40
2018-09-23T11:16:19.140Z,61.50
2018-09-23T11:18:48.425Z,61.50
2018-09-23T11:21:17.818Z,61.60
2018-09-23T11:23:47.140Z,61.60
2018-09-23T11:26:16.401Z,61.90
2018-09-23T11:28:45.713Z,61.40
2018-09-23T11:31:15.032Z,61.90
2018-09-23T11:33:44.251Z,61.70
2018-09-23T11:36:13.629Z,61.30
2018-09-23T11:38:42.927Z,61.40
2018-09-23T11:41:12.219Z,61.00
2018-09-23T11:43:41.454Z,61.00
2018-09-23T11:46:10.830Z,61.40
2018-09-23T11:48:40.142Z,61.90
2018-09-23T11:51:09.534Z,61.10
2018-09-23T11:53:38.889Z,61.40
2018-09-23T11:56:08.311Z,60.90
2018-09-23T11:58:37.617Z,61.20
2018-09-23T12:01:06.975Z,60.90
2018-09-23T12:03:36.290Z,60.90
2018-09-23T12:06:05.679Z,60.90
2018-09-23T12:08:34.947Z,60.90
2018-09-23T12:11:04.254Z,61.00
2018-09-23T12:13:33.558Z,61.00
2018-09-23T12:16:02.886Z,61.00
2018-09-23T12:18:32.277Z,60.80
2018-09-23T12:21:01.605Z,60.90
2018-09-23T12:23:30.930Z,60.90
2018-09-23T12:26:00.366Z,61.00
2018-09-23T12:28:29.688Z,61.00
2018-09-23T12:30:59.002Z,61.10
2018-09-23T12:33:28.273Z,61.10
2018-09-23T12:36:01.725Z,60.90
2018-09-23T12:38:32.094Z,61.00
2018-09-23T12:41:01.451Z,61.40
2018-09-23T12:43:30.796Z,61.10
2018-09-23T12:46:00.088Z,61.50
2018-09-23T12:48:29.447Z,61.30
2018-09-23T12:50:58.934Z,61.00
2018-09-23T12:53:28.232Z,61.30
2018-09-23T12:55:57.541Z,61.40
2018-09-23T12:58:28.091Z,61.20
2018-09-23T13:00:57.452Z,61.00
2018-09-23T13:03:26.716Z,61.10
2018-09-23T13:05:56.040Z,61.20
2018-09-23T13:08:25.300Z,61.50
2018-09-23T13:10:54.635Z,61.70
2018-09-23T13:13:23.979Z,61.10
2018-09-23T13:15:53.372Z,61.30
2018-09-23T13:18:22.841Z,61.10
2018-09-23T13:20:59.552Z,61.10
2018-09-23T13:23:28.870Z,61.00
2018-09-23T13:25:58.192Z,61.00
2018-09-23T13:28:27.529Z,61.00
2018-09-23T13:30:56.904Z,61.40
2018-09-23T13:33:26.202Z,61.30
2018-09-23T13:35:55.476Z,61.20
2018-09-23T13:38:24.837Z,61.50
2018-09-23T13:40:54.112Z,61.10
2018-09-23T13:43:23.387Z,61.20
2018-09-23T13:45:52.721Z,61.10
2018-09-23T13:48:22.188Z,61.40
2018-09-23T13:50:51.457Z,61.30
2018-09-23T13:53:20.770Z,61.00
2018-09-23T13:55:50.065Z,61.00
2018-09-23T13:58:19.461Z,61.20
2018-09-23T14:00:49.181Z,61.00
2018-09-23T14:03:18.649Z,61.10
2018-09-23T14:05:47.987Z,61.20
2018-09-23T14:08:17.414Z,61.10
2018-09-23T14:10:46.713Z,61.10
2018-09-23T14:13:16.075Z,61.10
2018-09-23T14:15:45.352Z,61.40
2018-09-23T14:18:14.792Z,61.20
2018-09-23T14:20:44.191Z,61.10
2018-09-23T14:23:13.577Z,61.30
2018-09-23T14:25:43.131Z,61.30
2018-09-23T14:28:12.453Z,61.30
2018-09-23T14:30:41.823Z,61.20
2018-09-23T14:33:11.396Z,61.10
2018-09-23T14:35:40.749Z,61.20
2018-09-23T14:38:10.040Z,61.20
2018-09-23T14:40:39.379Z,61.20
2018-09-23T14:43:08.721Z,61.30
2018-09-23T14:45:38.133Z,61.30
2018-09-23T14:48:07.580Z,61.30
2018-09-23T14:50:36.902Z,61.30
2018-09-23T14:53:06.315Z,61.30
2018-09-23T14:55:35.597Z,61.30
2018-09-23T14:58:05.156Z,61.30
2018-09-23T15:00:34.726Z,61.40
2018-09-23T15:03:03.963Z,61.40
2018-09-23T15:05:33.368Z,61.40
2018-09-23T15:08:02.775Z,61.40
2018-09-23T15:10:32.069Z,61.40
2018-09-23T15:13:01.408Z,61.40
2018-09-23T15:15:30.830Z,61.40
2018-09-23T15:18:00.319Z,62.00
2018-09-23T15:20:29.709Z,61.60
2018-09-23T15:22:59.016Z,61.70
2018-09-23T15:25:28.357Z,61.70
2018-09-23T15:27:57.925Z,61.60
2018-09-23T15:30:27.282Z,61.60
2018-09-23T15:32:56.622Z,61.80
2018-09-23T15:35:25.931Z,61.80
2018-09-23T15:37:55.460Z,61.90
2018-09-23T15:40:24.837Z,62.10
2018-09-23T15:42:54.186Z,62.00
2018-09-23T15:45:23.524Z,62.00
2018-09-23T15:47:52.855Z,62.00
2018-09-23T15:50:22.197Z,62.00
2018-09-23T15:52:51.822Z,62.00
2018-09-23T15:55:21.168Z,62.10
2018-09-23T15:57:50.565Z,61.90
2018-09-23T16:00:19.867Z,61.80
2018-09-23T16:02:49.520Z,61.90
2018-09-23T16:05:18.881Z,61.80
2018-09-23T16:07:48.326Z,61.90
2018-09-23T16:10:17.734Z,61.90
2018-09-23T16:12:47.088Z,61.90
2018-09-23T16:15:16.392Z,62.00
2018-09-23T16:17:45.876Z,62.30
2018-09-23T16:20:15.252Z,62.30
2018-09-23T16:22:44.480Z,62.20
2018-09-23T16:25:13.784Z,62.20
2018-09-23T16:27:43.109Z,62.00
2018-09-23T16:30:12.477Z,62.20
2018-09-23T16:32:41.848Z,62.30
2018-09-23T16:35:11.370Z,61.90
2018-09-23T16:37:40.783Z,62.20
2018-09-23T16:40:10.285Z,62.50
2018-09-23T16:42:39.688Z,62.90
2018-09-23T16:45:09.066Z,62.80
2018-09-23T16:47:38.435Z,62.70
2018-09-23T16:50:07.875Z,62.90
2018-09-23T16:52:37.153Z,62.90
2018-09-23T16:55:06.471Z,62.90
2018-09-23T16:57:35.852Z,62.90
2018-09-23T17:00:05.163Z,62.70
2018-09-23T17:02:34.454Z,62.70
2018-09-23T17:05:03.801Z,62.80
2018-09-23T17:07:33.480Z,62.70
2018-09-23T17:10:02.905Z,62.70
2018-09-23T17:12:32.224Z,62.70
2018-09-23T17:15:01.712Z,62.70
2018-09-23T17:17:31.060Z,62.70
2018-09-23T17:20:00.400Z,62.90
2018-09-23T17:22:29.716Z,63.80
2018-09-23T17:24:58.993Z,64.00
2018-09-23T17:27:28.304Z,64.80
2018-09-23T17:29:57.741Z,65.00
2018-09-23T17:32:27.179Z,64.70
2018-09-23T17:34:56.521Z,64.20
2018-09-23T17:37:25.924Z,64.10
2018-09-23T17:39:55.250Z,64.50
2018-09-23T17:42:24.566Z,64.50
2018-09-23T17:44:54.967Z,64.10
2018-09-23T17:47:24.339Z,64.00
2018-09-23T17:49:53.672Z,64.80
2018-09-23T17:52:23.121Z,65.00
2018-09-23T17:54:52.582Z,65.00
2018-09-23T17:57:21.893Z,64.70
2018-09-23T17:59:51.174Z,65.30
2018-09-23T18:02:20.495Z,65.10
2018-09-23T18:04:49.849Z,64.80
2018-09-23T18:07:19.163Z,64.70
2018-09-23T18:09:48.391Z,63.70
2018-09-23T18:12:18.093Z,63.60
2018-09-23T18:14:47.463Z,63.60
2018-09-23T18:17:16.968Z,63.20
2018-09-23T18:19:53.086Z,63.40
2018-09-23T18:22:22.810Z,63.50
2018-09-23T18:24:52.135Z,63.60
2018-09-23T18:27:21.536Z,63.10
2018-09-23T18:29:51.459Z,63.20
2018-09-23T18:32:20.804Z,62.90
2018-09-23T18:34:50.169Z,62.60
2018-09-23T18:37:20.639Z,61.40
2018-09-23T18:39:51.749Z,60.60
2018-09-23T18:42:21.073Z,60.70
2018-09-23T18:44:50.468Z,60.90
2018-09-23T18:47:22.038Z,61.20
2018-09-23T18:49:51.399Z,61.50
2018-09-23T18:52:20.779Z,61.90
2018-09-23T18:54:55.144Z,62.10
2018-09-23T18:57:24.454Z,62.50
2018-09-23T18:59:53.680Z,63.00
2018-09-23T19:02:22.876Z,62.90
2018-09-23T19:04:52.253Z,63.10
2018-09-23T19:07:21.640Z,63.30
2018-09-23T19:09:50.808Z,62.90
2018-09-23T19:12:20.046Z,62.70
2018-09-23T19:14:49.261Z,61.70
2018-09-23T19:17:18.598Z,61.50
2018-09-23T19:19:53.483Z,61.40
2018-09-23T19:22:27.833Z,61.40
2018-09-23T19:24:57.025Z,61.60
2018-09-23T19:27:26.481Z,61.80
2018-09-23T19:29:55.682Z,61.90
2018-09-23T19:32:24.920Z,62.30
2018-09-23T19:34:54.085Z,62.90
2018-09-23T19:37:23.616Z,62.90
2018-09-23T19:39:52.854Z,62.20
2018-09-23T19:42:22.126Z,61.10
2018-09-23T19:44:51.360Z,61.00
2018-09-23T19:48:49.750Z,60.90
2018-09-23T19:51:18.972Z,60.80
2018-09-23T19:53:48.168Z,60.60
2018-09-23T19:56:17.448Z,60.10
2018-09-23T19:58:46.641Z,60.70
2018-09-23T20:01:15.833Z,60.60
2018-09-23T20:03:45.030Z,60.70
2018-09-23T20:06:14.307Z,61.00
2018-09-23T20:08:43.500Z,61.20
2018-09-23T20:11:12.728Z,61.40
2018-09-23T20:13:41.971Z,61.50
2018-09-23T20:16:11.440Z,61.50
2018-09-23T20:18:40.729Z,61.60
2018-09-23T20:21:09.923Z,61.60
2018-09-23T20:23:39.104Z,61.60
2018-09-23T20:26:08.298Z,61.70
2018-09-23T20:28:37.496Z,61.70
2018-09-23T20:31:06.716Z,61.80
2018-09-23T20:33:35.895Z,61.80
2018-09-23T20:36:05.157Z,61.90
2018-09-23T20:38:34.341Z,61.90
2018-09-23T20:41:03.515Z,61.20
2018-09-23T20:43:32.691Z,62.00
2018-09-23T20:46:01.885Z,62.10
2018-09-23T20:48:31.488Z,62.20
2018-09-23T20:51:00.855Z,62.20
2018-09-23T20:53:30.089Z,62.30
2018-09-23T20:55:59.286Z,62.40
2018-09-23T20:58:28.485Z,62.40
2018-09-23T21:00:57.741Z,62.50
2018-09-23T21:03:26.940Z,62.50
2018-09-23T21:05:56.139Z,62.60
2018-09-23T21:08:25.376Z,62.60
2018-09-23T21:10:54.598Z,62.50
2018-09-23T21:13:23.804Z,62.60
2018-09-23T21:15:53.077Z,62.60
2018-09-23T21:18:22.345Z,62.70
2018-09-23T21:20:51.544Z,62.80
2018-09-23T21:23:20.899Z,62.90
2018-09-23T21:25:50.107Z,62.90
2018-09-23T21:28:19.329Z,62.90
2018-09-23T21:30:48.522Z,62.90
2018-09-23T21:33:17.728Z,62.30
2018-09-23T21:35:46.925Z,63.10
2018-09-23T21:38:16.359Z,63.10
2018-09-23T21:40:45.600Z,63.20
2018-09-23T21:43:14.820Z,63.10
2018-09-23T21:45:44.015Z,63.10
2018-09-23T21:48:13.229Z,63.20
2018-09-23T21:50:42.429Z,63.30
2018-09-23T21:53:11.627Z,63.20
2018-09-23T21:55:41.007Z,63.30
2018-09-23T21:58:10.261Z,63.20
2018-09-23T22:00:43.788Z,63.20
2018-09-23T22:03:14.428Z,63.30
2018-09-23T22:05:43.619Z,63.30
2018-09-23T22:08:13.425Z,63.30
2018-09-23T22:10:42.626Z,63.40
2018-09-23T22:13:11.822Z,63.40
2018-09-23T22:15:41.044Z,64.20
2018-09-23T22:18:10.397Z,63.50
2018-09-23T22:20:39.621Z,63.50
2018-09-23T22:23:08.818Z,63.80
2018-09-23T22:25:38.021Z,63.60
2018-09-23T22:28:07.351Z,63.40
2018-09-23T22:30:36.549Z,63.10
2018-09-23T22:33:05.745Z,62.80
2018-09-23T22:35:34.936Z,62.30
2018-09-23T22:38:04.143Z,62.00
2018-09-23T22:40:33.311Z,62.10
2018-09-23T22:43:02.503Z,62.20
2018-09-23T22:45:31.812Z,62.30
2018-09-23T22:48:01.264Z,62.20
2018-09-23T22:50:30.435Z,62.00
2018-09-23T22:52:59.684Z,62.50
2018-09-23T22:55:28.888Z,62.40
2018-09-23T22:57:58.178Z,62.60
2018-09-23T23:00:27.531Z,62.20
2018-09-23T23:02:56.817Z,62.20
2018-09-23T23:05:26.002Z,62.30
2018-09-23T23:07:55.236Z,62.30
2018-09-23T23:10:24.399Z,62.40
2018-09-23T23:12:53.976Z,62.30
2018-09-23T23:15:23.133Z,62.00
2018-09-23T23:17:52.333Z,62.20
2018-09-23T23:20:21.701Z,62.20
2018-09-23T23:22:50.897Z,62.10
2018-09-23T23:25:20.096Z,62.10
2018-09-23T23:27:49.329Z,62.00
2018-09-23T23:30:18.605Z,62.40
2018-09-23T23:32:47.843Z,62.10
2018-09-23T23:35:17.024Z,62.10
2018-09-23T23:37:46.219Z,62.20
2018-09-23T23:40:15.418Z,62.00
2018-09-23T23:42:44.614Z,62.10
2018-09-23T23:45:13.809Z,62.10
2018-09-23T23:47:43.085Z,62.00
2018-09-23T23:50:12.287Z,62.20
2018-09-23T23:52:41.485Z,62.30
2018-09-23T23:55:10.678Z,62.30
2018-09-23T23:57:39.922Z,62.30
